sensor_id;sensor_type;location;lat;lon;timestamp;pressure;altitude;pressure_sealevel;temperature;humidity
42169;BME280;27838;43.858;25.974;2023-03-16T00:00:03;100082.28;;;12.87;53.00
42169;BME280;27838;43.858;25.974;2023-03-16T00:02:33;100085.75;;;12.87;52.85
42169;BME280;27838;43.858;25.974;2023-03-16T00:05:00;100094.38;;;12.92;53.06
42169;BME280;27838;43.858;25.974;2023-03-16T00:07:27;100101.34;;;12.93;52.78
42169;BME280;27838;43.858;25.974;2023-03-16T00:09:53;100096.09;;;12.93;53.13
42169;BME280;27838;43.858;25.974;2023-03-16T00:12:20;100095.41;;;12.83;53.20
42169;BME280;27838;43.858;25.974;2023-03-16T00:14:48;100098.91;;;12.82;53.50
42169;BME280;27838;43.858;25.974;2023-03-16T00:17:17;100099.84;;;12.80;53.88
42169;BME280;27838;43.858;25.974;2023-03-16T00:19:52;100093.66;;;12.82;53.82
42169;BME280;27838;43.858;25.974;2023-03-16T00:22:20;100090.16;;;12.85;53.87
42169;BME280;27838;43.858;25.974;2023-03-16T00:24:47;100091.84;;;12.88;53.68
42169;BME280;27838;43.858;25.974;2023-03-16T00:27:14;100094.56;;;12.83;54.18
42169;BME280;27838;43.858;25.974;2023-03-16T00:29:46;100091.13;;;12.81;54.15
42169;BME280;27838;43.858;25.974;2023-03-16T00:32:17;100103.31;;;12.79;54.24
42169;BME280;27838;43.858;25.974;2023-03-16T00:34:45;100106.16;;;12.68;54.50
42169;BME280;27838;43.858;25.974;2023-03-16T00:37:13;100108.06;;;12.60;55.08
42169;BME280;27838;43.858;25.974;2023-03-16T00:39:41;100114.19;;;12.57;55.46
42169;BME280;27838;43.858;25.974;2023-03-16T00:42:09;100104.63;;;12.56;55.37
42169;BME280;27838;43.858;25.974;2023-03-16T00:44:36;100108.00;;;12.61;55.11
42169;BME280;27838;43.858;25.974;2023-03-16T00:47:04;100097.53;;;12.63;55.16
42169;BME280;27838;43.858;25.974;2023-03-16T00:49:33;100095.84;;;12.60;55.25
42169;BME280;27838;43.858;25.974;2023-03-16T00:52:01;100111.47;;;12.63;55.26
42169;BME280;27838;43.858;25.974;2023-03-16T00:54:29;100121.06;;;12.63;55.45
42169;BME280;27838;43.858;25.974;2023-03-16T00:57:00;100125.44;;;12.62;55.24
42169;BME280;27838;43.858;25.974;2023-03-16T00:59:28;100121.94;;;12.63;55.25
42169;BME280;27838;43.858;25.974;2023-03-16T01:01:55;100121.88;;;12.66;55.29
42169;BME280;27838;43.858;25.974;2023-03-16T01:04:22;100122.81;;;12.62;55.77
42169;BME280;27838;43.858;25.974;2023-03-16T01:06:48;100129.78;;;12.63;55.58
42169;BME280;27838;43.858;25.974;2023-03-16T01:09:15;100136.66;;;12.69;55.20
42169;BME280;27838;43.858;25.974;2023-03-16T01:11:42;100133.06;;;12.75;55.31
42169;BME280;27838;43.858;25.974;2023-03-16T01:14:09;100127.03;;;12.70;55.48
42169;BME280;27838;43.858;25.974;2023-03-16T01:16:36;100128.00;;;12.65;55.63
42169;BME280;27838;43.858;25.974;2023-03-16T01:19:03;100135.84;;;12.65;55.65
42169;BME280;27838;43.858;25.974;2023-03-16T01:21:30;100141.09;;;12.64;55.79
42169;BME280;27838;43.858;25.974;2023-03-16T01:23:58;100141.84;;;12.71;55.45
42169;BME280;27838;43.858;25.974;2023-03-16T01:26:24;100150.50;;;12.74;55.59
42169;BME280;27838;43.858;25.974;2023-03-16T01:28:52;100147.00;;;12.74;55.52
42169;BME280;27838;43.858;25.974;2023-03-16T01:31:19;100145.22;;;12.77;55.46
42169;BME280;27838;43.858;25.974;2023-03-16T01:33:45;100152.16;;;12.78;55.67
42169;BME280;27838;43.858;25.974;2023-03-16T01:36:14;100144.38;;;12.75;55.70
42169;BME280;27838;43.858;25.974;2023-03-16T01:38:41;100150.47;;;12.76;55.73
42169;BME280;27838;43.858;25.974;2023-03-16T01:41:08;100143.53;;;12.73;55.89
42169;BME280;27838;43.858;25.974;2023-03-16T01:43:37;100152.28;;;12.72;55.91
42169;BME280;27838;43.858;25.974;2023-03-16T01:48:39;100155.72;;;12.76;55.78
42169;BME280;27838;43.858;25.974;2023-03-16T01:51:18;100150.41;;;12.79;55.69
42169;BME280;27838;43.858;25.974;2023-03-16T01:53:48;100154.59;;;12.88;55.58
42169;BME280;27838;43.858;25.974;2023-03-16T01:56:42;100146.75;;;12.88;55.51
42169;BME280;27838;43.858;25.974;2023-03-16T01:59:11;100160.72;;;12.88;55.58
42169;BME280;27838;43.858;25.974;2023-03-16T02:01:39;100152.03;;;12.86;55.93
42169;BME280;27838;43.858;25.974;2023-03-16T02:04:28;100158.09;;;12.88;55.65
42169;BME280;27838;43.858;25.974;2023-03-16T02:06:59;100156.41;;;12.84;56.44
42169;BME280;27838;43.858;25.974;2023-03-16T02:09:26;100154.72;;;12.81;56.62
42169;BME280;27838;43.858;25.974;2023-03-16T02:11:54;100154.75;;;12.80;57.04
42169;BME280;27838;43.858;25.974;2023-03-16T02:14:20;100151.34;;;12.76;57.17
42169;BME280;27838;43.858;25.974;2023-03-16T02:16:49;100157.41;;;12.77;57.12
42169;BME280;27838;43.858;25.974;2023-03-16T02:19:40;100169.78;;;12.69;57.99
42169;BME280;27838;43.858;25.974;2023-03-16T02:22:09;100170.72;;;12.64;58.72
42169;BME280;27838;43.858;25.974;2023-03-16T02:24:38;100169.84;;;12.64;58.46
42169;BME280;27838;43.858;25.974;2023-03-16T02:27:12;100177.72;;;12.62;59.05
42169;BME280;27838;43.858;25.974;2023-03-16T02:29:52;100176.97;;;12.54;59.00
42169;BME280;27838;43.858;25.974;2023-03-16T02:32:21;100178.75;;;12.52;59.29
42169;BME280;27838;43.858;25.974;2023-03-16T02:34:49;100183.94;;;12.55;59.64
42169;BME280;27838;43.858;25.974;2023-03-16T02:37:16;100178.69;;;12.58;59.36
42169;BME280;27838;43.858;25.974;2023-03-16T02:39:43;100171.66;;;12.60;59.39
42169;BME280;27838;43.858;25.974;2023-03-16T02:42:12;100177.69;;;12.65;59.19
42169;BME280;27838;43.858;25.974;2023-03-16T02:44:41;100181.97;;;12.70;59.23
42169;BME280;27838;43.858;25.974;2023-03-16T02:47:22;100180.25;;;12.69;59.62
42169;BME280;27838;43.858;25.974;2023-03-16T02:49:50;100188.09;;;12.69;59.32
42169;BME280;27838;43.858;25.974;2023-03-16T02:52:16;100186.41;;;12.64;59.84
42169;BME280;27838;43.858;25.974;2023-03-16T02:54:43;100188.19;;;12.62;59.79
42169;BME280;27838;43.858;25.974;2023-03-16T02:57:10;100195.09;;;12.65;60.01
42169;BME280;27838;43.858;25.974;2023-03-16T02:59:36;100202.03;;;12.68;59.75
42169;BME280;27838;43.858;25.974;2023-03-16T03:02:03;100195.94;;;12.69;59.86
42169;BME280;27838;43.858;25.974;2023-03-16T03:04:30;100198.50;;;12.70;59.90
42169;BME280;27838;43.858;25.974;2023-03-16T03:06:57;100203.69;;;12.72;59.64
42169;BME280;27838;43.858;25.974;2023-03-16T03:09:30;100204.63;;;12.71;60.16
42169;BME280;27838;43.858;25.974;2023-03-16T03:11:58;100196.84;;;12.66;60.19
42169;BME280;27838;43.858;25.974;2023-03-16T03:14:25;100207.28;;;12.66;60.59
42169;BME280;27838;43.858;25.974;2023-03-16T03:16:53;100211.63;;;12.69;60.18
42169;BME280;27838;43.858;25.974;2023-03-16T03:19:19;100212.38;;;12.74;60.13
42169;BME280;27838;43.858;25.974;2023-03-16T03:21:47;100209.75;;;12.74;59.99
42169;BME280;27838;43.858;25.974;2023-03-16T03:24:13;100216.69;;;12.78;60.39
42169;BME280;27838;43.858;25.974;2023-03-16T03:26:40;100221.91;;;12.79;60.17
42169;BME280;27838;43.858;25.974;2023-03-16T03:29:09;100225.38;;;12.80;60.41
42169;BME280;27838;43.858;25.974;2023-03-16T03:31:35;100232.34;;;12.81;60.46
42169;BME280;27838;43.858;25.974;2023-03-16T03:34:02;100240.22;;;12.78;60.58
42169;BME280;27838;43.858;25.974;2023-03-16T03:36:31;100240.53;;;12.58;60.87
42169;BME280;27838;43.858;25.974;2023-03-16T03:38:58;100254.56;;;12.52;60.83
42169;BME280;27838;43.858;25.974;2023-03-16T03:41:27;100251.88;;;12.58;60.19
42169;BME280;27838;43.858;25.974;2023-03-16T03:43:54;100262.38;;;12.55;60.11
42169;BME280;27838;43.858;25.974;2023-03-16T03:46:20;100265.88;;;12.54;59.94
42169;BME280;27838;43.858;25.974;2023-03-16T03:48:47;100269.41;;;12.50;59.61
42169;BME280;27838;43.858;25.974;2023-03-16T03:51:13;100274.06;;;12.31;59.42
42169;BME280;27838;43.858;25.974;2023-03-16T03:53:40;100287.28;;;12.20;59.47
42169;BME280;27838;43.858;25.974;2023-03-16T03:56:07;100282.22;;;12.06;59.21
42169;BME280;27838;43.858;25.974;2023-03-16T03:58:33;100297.13;;;11.98;59.55
42169;BME280;27838;43.858;25.974;2023-03-16T04:01:00;100292.03;;;11.86;60.13
42169;BME280;27838;43.858;25.974;2023-03-16T04:03:27;100290.34;;;11.82;60.22
42169;BME280;27838;43.858;25.974;2023-03-16T04:05:55;100297.34;;;11.78;60.51
42169;BME280;27838;43.858;25.974;2023-03-16T04:08:21;100292.25;;;11.69;60.28
42169;BME280;27838;43.858;25.974;2023-03-16T04:10:48;100293.22;;;11.60;60.51
42169;BME280;27838;43.858;25.974;2023-03-16T04:13:15;100301.94;;;11.58;60.46
42169;BME280;27838;43.858;25.974;2023-03-16T04:15:42;100297.72;;;11.44;60.84
42169;BME280;27838;43.858;25.974;2023-03-16T04:18:11;100300.44;;;11.32;60.92
42169;BME280;27838;43.858;25.974;2023-03-16T04:20:38;100304.78;;;11.33;60.81
42169;BME280;27838;43.858;25.974;2023-03-16T04:23:04;100303.03;;;11.35;60.98
42169;BME280;27838;43.858;25.974;2023-03-16T04:25:31;100314.31;;;11.37;60.96
42169;BME280;27838;43.858;25.974;2023-03-16T04:27:58;100317.75;;;11.42;60.65
42169;BME280;27838;43.858;25.974;2023-03-16T04:30:26;100312.53;;;11.42;59.78
42169;BME280;27838;43.858;25.974;2023-03-16T04:32:52;100316.09;;;11.30;59.40
42169;BME280;27838;43.858;25.974;2023-03-16T04:35:19;100324.84;;;11.28;59.28
42169;BME280;27838;43.858;25.974;2023-03-16T04:37:46;100324.88;;;11.23;58.83
42169;BME280;27838;43.858;25.974;2023-03-16T04:40:13;100324.06;;;11.18;58.95
42169;BME280;27838;43.858;25.974;2023-03-16T04:42:44;100339.75;;;11.15;58.51
42169;BME280;27838;43.858;25.974;2023-03-16T04:45:12;100351.91;;;11.14;57.99
42169;BME280;27838;43.858;25.974;2023-03-16T04:47:39;100361.56;;;11.06;58.14
42169;BME280;27838;43.858;25.974;2023-03-16T04:50:07;100372.84;;;11.07;58.41
42169;BME280;27838;43.858;25.974;2023-03-16T04:52:34;100383.31;;;11.02;58.25
42169;BME280;27838;43.858;25.974;2023-03-16T04:55:01;100391.13;;;11.01;58.61
42169;BME280;27838;43.858;25.974;2023-03-16T04:57:27;100402.56;;;10.78;58.60
42169;BME280;27838;43.858;25.974;2023-03-16T04:59:55;100394.81;;;10.73;58.54
42169;BME280;27838;43.858;25.974;2023-03-16T05:02:21;100409.63;;;10.62;59.04
42169;BME280;27838;43.858;25.974;2023-03-16T05:04:48;100411.38;;;10.57;59.13
42169;BME280;27838;43.858;25.974;2023-03-16T05:07:15;100422.72;;;10.53;59.36
42169;BME280;27838;43.858;25.974;2023-03-16T05:09:41;100438.34;;;10.56;59.69
42169;BME280;27838;43.858;25.974;2023-03-16T05:12:10;100440.03;;;10.58;59.80
42169;BME280;27838;43.858;25.974;2023-03-16T05:14:36;100441.78;;;10.58;59.89
42169;BME280;27838;43.858;25.974;2023-03-16T05:17:03;100454.81;;;10.64;59.43
42169;BME280;27838;43.858;25.974;2023-03-16T05:19:30;100441.78;;;10.58;59.29
42169;BME280;27838;43.858;25.974;2023-03-16T05:21:56;100443.59;;;10.36;59.28
42169;BME280;27838;43.858;25.974;2023-03-16T05:24:23;100462.72;;;10.29;59.97
42169;BME280;27838;43.858;25.974;2023-03-16T05:26:49;100463.59;;;10.26;59.59
42169;BME280;27838;43.858;25.974;2023-03-16T05:29:16;100466.25;;;10.11;60.30
42169;BME280;27838;43.858;25.974;2023-03-16T05:31:42;100467.97;;;10.12;59.85
42169;BME280;27838;43.858;25.974;2023-03-16T05:34:11;100474.91;;;10.16;59.48
42169;BME280;27838;43.858;25.974;2023-03-16T05:36:37;100475.78;;;10.06;59.47
42169;BME280;27838;43.858;25.974;2023-03-16T05:39:04;100484.47;;;10.05;60.06
42169;BME280;27838;43.858;25.974;2023-03-16T05:41:32;100481.88;;;10.08;59.77
42169;BME280;27838;43.858;25.974;2023-03-16T05:43:59;100493.13;;;10.10;59.68
42169;BME280;27838;43.858;25.974;2023-03-16T05:46:25;100491.38;;;10.16;60.00
42169;BME280;27838;43.858;25.974;2023-03-16T05:48:52;100497.44;;;10.31;59.03
42169;BME280;27838;43.858;25.974;2023-03-16T05:51:18;100480.97;;;10.23;59.15
42169;BME280;27838;43.858;25.974;2023-03-16T05:53:45;100498.31;;;10.30;59.01
42169;BME280;27838;43.858;25.974;2023-03-16T05:56:11;100499.19;;;10.27;58.82
42169;BME280;27838;43.858;25.974;2023-03-16T05:58:38;100516.59;;;10.19;58.93
42169;BME280;27838;43.858;25.974;2023-03-16T06:01:06;100515.72;;;10.09;59.01
42169;BME280;27838;43.858;25.974;2023-03-16T06:03:33;100527.03;;;9.91;59.33
42169;BME280;27838;43.858;25.974;2023-03-16T06:06:00;100527.88;;;9.79;60.00
42169;BME280;27838;43.858;25.974;2023-03-16T06:08:27;100521.81;;;9.73;59.99
42169;BME280;27838;43.858;25.974;2023-03-16T06:10:54;100514.88;;;9.59;60.50
42169;BME280;27838;43.858;25.974;2023-03-16T06:13:20;100519.22;;;9.56;60.42
42169;BME280;27838;43.858;25.974;2023-03-16T06:15:48;100521.78;;;9.57;60.62
42169;BME280;27838;43.858;25.974;2023-03-16T06:18:14;100520.09;;;9.69;59.93
42169;BME280;27838;43.858;25.974;2023-03-16T06:20:41;100513.13;;;9.57;59.81
42169;BME280;27838;43.858;25.974;2023-03-16T06:23:08;100520.94;;;9.49;60.68
42169;BME280;27838;43.858;25.974;2023-03-16T06:25:34;100527.00;;;9.51;61.08
42169;BME280;27838;43.858;25.974;2023-03-16T06:28:01;100525.25;;;9.61;60.90
42169;BME280;27838;43.858;25.974;2023-03-16T06:30:28;100526.16;;;9.77;60.36
42169;BME280;27838;43.858;25.974;2023-03-16T06:32:54;100531.38;;;9.88;59.49
42169;BME280;27838;43.858;25.974;2023-03-16T06:35:21;100533.09;;;9.95;59.37
42169;BME280;27838;43.858;25.974;2023-03-16T06:37:47;100537.44;;;10.04;58.71
42169;BME280;27838;43.858;25.974;2023-03-16T06:40:14;100535.69;;;9.93;58.82
42169;BME280;27838;43.858;25.974;2023-03-16T06:42:41;100548.72;;;9.86;58.78
42169;BME280;27838;43.858;25.974;2023-03-16T06:45:08;100560.00;;;9.88;58.86
42169;BME280;27838;43.858;25.974;2023-03-16T06:47:35;100565.22;;;9.91;59.18
42169;BME280;27838;43.858;25.974;2023-03-16T06:50:03;100565.22;;;9.89;58.64
42169;BME280;27838;43.858;25.974;2023-03-16T06:52:29;100574.75;;;9.86;58.68
42169;BME280;27838;43.858;25.974;2023-03-16T06:54:56;100560.00;;;9.75;58.42
42169;BME280;27838;43.858;25.974;2023-03-16T06:57:23;100578.22;;;9.86;58.36
42169;BME280;27838;43.858;25.974;2023-03-16T06:59:50;100592.97;;;9.86;58.58
42169;BME280;27838;43.858;25.974;2023-03-16T07:02:16;100595.56;;;9.78;58.00
42169;BME280;27838;43.858;25.974;2023-03-16T07:04:44;100589.47;;;9.73;58.88
42169;BME280;27838;43.858;25.974;2023-03-16T07:07:11;100603.38;;;9.76;58.78
42169;BME280;27838;43.858;25.974;2023-03-16T07:09:38;100605.09;;;9.76;59.13
42169;BME280;27838;43.858;25.974;2023-03-16T07:12:04;100610.31;;;9.79;58.80
42169;BME280;27838;43.858;25.974;2023-03-16T07:14:31;100614.66;;;9.85;58.63
42169;BME280;27838;43.858;25.974;2023-03-16T07:16:58;100622.50;;;9.91;59.36
42169;BME280;27838;43.858;25.974;2023-03-16T07:19:24;100630.28;;;9.95;58.62
42169;BME280;27838;43.858;25.974;2023-03-16T07:21:51;100636.38;;;9.99;58.43
42169;BME280;27838;43.858;25.974;2023-03-16T07:24:17;100644.16;;;9.87;58.50
42169;BME280;27838;43.858;25.974;2023-03-16T07:26:44;100646.78;;;9.91;58.24
42169;BME280;27838;43.858;25.974;2023-03-16T07:29:12;100648.50;;;9.92;58.02
42169;BME280;27838;43.858;25.974;2023-03-16T07:31:39;100645.03;;;9.93;57.49
42169;BME280;27838;43.858;25.974;2023-03-16T07:34:05;100655.44;;;9.90;58.05
42169;BME280;27838;43.858;25.974;2023-03-16T07:36:32;100653.72;;;9.89;58.32
42169;BME280;27838;43.858;25.974;2023-03-16T07:38:58;100661.53;;;9.89;58.47
42169;BME280;27838;43.858;25.974;2023-03-16T07:41:25;100658.06;;;9.95;58.46
42169;BME280;27838;43.858;25.974;2023-03-16T07:43:52;100658.09;;;9.99;58.15
42169;BME280;27838;43.858;25.974;2023-03-16T07:46:19;100666.75;;;10.06;57.96
42169;BME280;27838;43.858;25.974;2023-03-16T07:48:45;100664.16;;;10.06;58.48
42169;BME280;27838;43.858;25.974;2023-03-16T07:51:12;100666.78;;;10.03;58.67
42169;BME280;27838;43.858;25.974;2023-03-16T07:53:39;100668.50;;;10.04;59.30
42169;BME280;27838;43.858;25.974;2023-03-16T07:56:08;100673.72;;;10.09;59.00
42169;BME280;27838;43.858;25.974;2023-03-16T07:58:35;100676.31;;;10.15;59.16
42169;BME280;27838;43.858;25.974;2023-03-16T08:01:02;100674.59;;;10.17;58.99
42169;BME280;27838;43.858;25.974;2023-03-16T08:03:29;100677.19;;;10.14;58.94
42169;BME280;27838;43.858;25.974;2023-03-16T08:05:56;100684.13;;;10.13;59.09
42169;BME280;27838;43.858;25.974;2023-03-16T08:08:23;100678.03;;;10.04;59.23
42169;BME280;27838;43.858;25.974;2023-03-16T08:10:50;100685.84;;;10.02;59.16
42169;BME280;27838;43.858;25.974;2023-03-16T08:13:18;100684.06;;;9.89;59.40
42169;BME280;27838;43.858;25.974;2023-03-16T08:15:48;100686.69;;;9.84;59.69
42169;BME280;27838;43.858;25.974;2023-03-16T08:18:20;100682.34;;;9.83;59.87
42169;BME280;27838;43.858;25.974;2023-03-16T08:20:48;100684.94;;;9.80;59.84
42169;BME280;27838;43.858;25.974;2023-03-16T08:23:14;100683.16;;;9.63;59.94
42169;BME280;27838;43.858;25.974;2023-03-16T08:25:41;100682.31;;;9.64;60.06
42169;BME280;27838;43.858;25.974;2023-03-16T08:28:09;100691.88;;;9.72;60.53
42169;BME280;27838;43.858;25.974;2023-03-16T08:30:42;100697.06;;;9.72;61.11
42169;BME280;27838;43.858;25.974;2023-03-16T08:33:08;100690.13;;;9.71;60.98
42169;BME280;27838;43.858;25.974;2023-03-16T08:35:35;100696.16;;;9.63;60.75
42169;BME280;27838;43.858;25.974;2023-03-16T08:38:02;100704.84;;;9.66;61.08
42169;BME280;27838;43.858;25.974;2023-03-16T08:40:29;100710.94;;;9.69;61.18
42169;BME280;27838;43.858;25.974;2023-03-16T08:42:58;100714.41;;;9.67;60.74
42169;BME280;27838;43.858;25.974;2023-03-16T08:45:25;100714.38;;;9.63;60.33
42169;BME280;27838;43.858;25.974;2023-03-16T08:47:52;100712.63;;;9.62;60.64
42169;BME280;27838;43.858;25.974;2023-03-16T08:50:19;100723.03;;;9.62;60.52
42169;BME280;27838;43.858;25.974;2023-03-16T08:52:47;100703.06;;;9.55;60.73
42169;BME280;27838;43.858;25.974;2023-03-16T08:55:15;100717.84;;;9.62;60.73
42169;BME280;27838;43.858;25.974;2023-03-16T08:57:41;100717.84;;;9.56;59.84
42169;BME280;27838;43.858;25.974;2023-03-16T09:00:10;100722.16;;;9.59;60.53
42169;BME280;27838;43.858;25.974;2023-03-16T09:02:39;100729.94;;;9.51;59.52
42169;BME280;27838;43.858;25.974;2023-03-16T09:05:12;100736.00;;;9.50;60.39
42169;BME280;27838;43.858;25.974;2023-03-16T09:07:39;100741.25;;;9.58;59.95
42169;BME280;27838;43.858;25.974;2023-03-16T09:10:06;100740.41;;;9.56;59.40
42169;BME280;27838;43.858;25.974;2023-03-16T09:12:35;100743.88;;;9.59;59.86
42169;BME280;27838;43.858;25.974;2023-03-16T09:15:03;100750.81;;;9.60;59.88
42169;BME280;27838;43.858;25.974;2023-03-16T09:17:30;100753.41;;;9.60;59.63
42169;BME280;27838;43.858;25.974;2023-03-16T09:19:57;100753.41;;;9.62;59.50
42169;BME280;27838;43.858;25.974;2023-03-16T09:22:24;100757.78;;;9.69;59.72
42169;BME280;27838;43.858;25.974;2023-03-16T09:24:50;100760.41;;;9.75;59.69
42169;BME280;27838;43.858;25.974;2023-03-16T09:27:17;100756.94;;;9.75;59.60
42169;BME280;27838;43.858;25.974;2023-03-16T09:29:44;100756.06;;;9.76;60.06
42169;BME280;27838;43.858;25.974;2023-03-16T09:32:11;100764.75;;;9.78;60.13
42169;BME280;27838;43.858;25.974;2023-03-16T09:34:38;100767.38;;;9.82;59.65
42169;BME280;27838;43.858;25.974;2023-03-16T09:37:04;100776.94;;;9.80;59.92
42169;BME280;27838;43.858;25.974;2023-03-16T09:39:31;100772.59;;;9.84;60.27
42169;BME280;27838;43.858;25.974;2023-03-16T09:47:30;100779.56;;;9.88;60.37
42169;BME280;27838;43.858;25.974;2023-03-16T09:50:04;100776.09;;;9.88;60.31
42169;BME280;27838;43.858;25.974;2023-03-16T09:52:39;100777.81;;;9.84;60.37
42169;BME280;27838;43.858;25.974;2023-03-16T09:55:34;100781.28;;;9.86;60.68
42169;BME280;27838;43.858;25.974;2023-03-16T09:58:04;100777.81;;;9.92;60.93
42169;BME280;27838;43.858;25.974;2023-03-16T10:00:40;100781.28;;;9.92;60.76
42169;BME280;27838;43.858;25.974;2023-03-16T10:03:39;100782.16;;;9.91;61.16
42169;BME280;27838;43.858;25.974;2023-03-16T10:06:12;100782.19;;;9.94;61.44
42169;BME280;27838;43.858;25.974;2023-03-16T10:08:42;100796.97;;;10.09;62.07
42169;BME280;27838;43.858;25.974;2023-03-16T10:11:30;100787.44;;;10.08;60.80
42169;BME280;27838;43.858;25.974;2023-03-16T10:16:49;100795.25;;;10.07;61.70
42169;BME280;27838;43.858;25.974;2023-03-16T10:19:37;100795.28;;;10.17;62.16
42169;BME280;27838;43.858;25.974;2023-03-16T10:22:21;100794.41;;;10.23;62.31
42169;BME280;27838;43.858;25.974;2023-03-16T10:27:35;100803.13;;;10.30;61.77
42169;BME280;27838;43.858;25.974;2023-03-16T10:30:09;100799.66;;;10.26;60.95
42169;BME280;27838;43.858;25.974;2023-03-16T10:32:43;100806.66;;;10.38;61.43
42169;BME280;27838;43.858;25.974;2023-03-16T10:35:47;100810.13;;;10.42;61.43
42169;BME280;27838;43.858;25.974;2023-03-16T10:41:18;100818.81;;;10.53;61.66
42169;BME280;27838;43.858;25.974;2023-03-16T10:44:29;100804.94;;;10.52;61.36
42169;BME280;27838;43.858;25.974;2023-03-16T10:49:21;100817.97;;;10.63;59.96
42169;BME280;27838;43.858;25.974;2023-03-16T10:51:52;100812.75;;;10.60;60.32
42169;BME280;27838;43.858;25.974;2023-03-16T10:54:39;100811.91;;;10.64;60.73
42169;BME280;27838;43.858;25.974;2023-03-16T10:57:33;100804.09;;;10.63;60.92
42169;BME280;27838;43.858;25.974;2023-03-16T11:00:12;100812.75;;;10.60;61.26
42169;BME280;27838;43.858;25.974;2023-03-16T11:02:46;100805.78;;;10.51;61.38
42169;BME280;27838;43.858;25.974;2023-03-16T11:05:31;100801.44;;;10.55;61.64
42169;BME280;27838;43.858;25.974;2023-03-16T11:08:12;100811.91;;;10.61;61.48
42169;BME280;27838;43.858;25.974;2023-03-16T11:10:45;100810.16;;;10.69;61.89
42169;BME280;27838;43.858;25.974;2023-03-16T11:13:20;100815.38;;;10.71;62.54
42169;BME280;27838;43.858;25.974;2023-03-16T11:18:37;100811.91;;;10.75;61.61
42169;BME280;27838;43.858;25.974;2023-03-16T11:24:43;100823.19;;;10.71;61.45
42169;BME280;27838;43.858;25.974;2023-03-16T11:32:36;100821.47;;;10.59;60.40
42169;BME280;27838;43.858;25.974;2023-03-16T11:35:18;100819.69;;;10.55;60.01
42169;BME280;27838;43.858;25.974;2023-03-16T11:38:07;100814.50;;;10.56;60.06
42169;BME280;27838;43.858;25.974;2023-03-16T11:41:03;100820.59;;;10.54;60.25
42169;BME280;27838;43.858;25.974;2023-03-16T11:46:10;100825.78;;;10.54;60.37
42169;BME280;27838;43.858;25.974;2023-03-16T11:57:27;100836.22;;;10.51;60.50
42169;BME280;27838;43.858;25.974;2023-03-16T12:00:16;100831.88;;;10.47;60.28
42169;BME280;27838;43.858;25.974;2023-03-16T12:02:52;100843.13;;;10.46;60.35
42169;BME280;27838;43.858;25.974;2023-03-16T12:05:42;100840.53;;;10.55;60.17
42169;BME280;27838;43.858;25.974;2023-03-16T12:08:18;100845.78;;;10.60;60.59
42169;BME280;27838;43.858;25.974;2023-03-16T12:11:06;100850.13;;;10.62;60.59
42169;BME280;27838;43.858;25.974;2023-03-16T12:16:20;100844.91;;;10.65;60.38
42169;BME280;27838;43.858;25.974;2023-03-16T12:19:01;100846.66;;;10.72;60.30
42169;BME280;27838;43.858;25.974;2023-03-16T12:21:40;100838.84;;;10.72;60.42
42169;BME280;27838;43.858;25.974;2023-03-16T12:24:20;100855.38;;;10.84;60.38
42169;BME280;27838;43.858;25.974;2023-03-16T12:26:48;100856.25;;;10.87;60.94
42169;BME280;27838;43.858;25.974;2023-03-16T12:29:36;100853.63;;;10.86;60.28
42169;BME280;27838;43.858;25.974;2023-03-16T12:37:18;100855.38;;;10.90;60.26
42169;BME280;27838;43.858;25.974;2023-03-16T12:45:16;100869.28;;;10.95;60.58
42169;BME280;27838;43.858;25.974;2023-03-16T12:47:55;100869.28;;;10.95;60.52
42169;BME280;27838;43.858;25.974;2023-03-16T12:50:24;100864.06;;;10.95;60.72
42169;BME280;27838;43.858;25.974;2023-03-16T12:52:52;100871.03;;;11.02;61.12
42169;BME280;27838;43.858;25.974;2023-03-16T12:55:22;100876.25;;;11.02;60.39
42169;BME280;27838;43.858;25.974;2023-03-16T12:57:58;100882.34;;;11.01;60.61
42169;BME280;27838;43.858;25.974;2023-03-16T13:00:34;100877.97;;;10.95;60.66
42169;BME280;27838;43.858;25.974;2023-03-16T13:03:04;100886.69;;;10.94;60.70
42169;BME280;27838;43.858;25.974;2023-03-16T13:05:33;100876.22;;;10.87;61.19
42169;BME280;27838;43.858;25.974;2023-03-16T13:08:07;100889.28;;;10.93;61.08
42169;BME280;27838;43.858;25.974;2023-03-16T13:10:36;100902.31;;;10.94;61.21
42169;BME280;27838;43.858;25.974;2023-03-16T13:13:10;100892.75;;;10.93;61.36
42169;BME280;27838;43.858;25.974;2023-03-16T13:15:40;100903.19;;;10.93;61.86
42169;BME280;27838;43.858;25.974;2023-03-16T13:20:51;100906.66;;;10.95;62.22
42169;BME280;27838;43.858;25.974;2023-03-16T13:23:22;100911.00;;;10.95;61.95
42169;BME280;27838;43.858;25.974;2023-03-16T13:26:09;100917.97;;;10.93;61.61
42169;BME280;27838;43.858;25.974;2023-03-16T13:28:39;100903.16;;;10.83;61.94
42169;BME280;27838;43.858;25.974;2023-03-16T13:31:36;100915.34;;;10.88;62.03
42169;BME280;27838;43.858;25.974;2023-03-16T13:34:05;100921.44;;;10.86;62.44
42169;BME280;27838;43.858;25.974;2023-03-16T13:36:34;100922.28;;;10.83;62.29
42169;BME280;27838;43.858;25.974;2023-03-16T13:39:25;100923.16;;;10.84;62.66
42169;BME280;27838;43.858;25.974;2023-03-16T13:44:30;100935.34;;;10.88;62.56
42169;BME280;27838;43.858;25.974;2023-03-16T13:47:03;100939.69;;;10.87;62.97
42169;BME280;27838;43.858;25.974;2023-03-16T13:49:31;100937.91;;;10.75;62.18
42169;BME280;27838;43.858;25.974;2023-03-16T13:51:57;100941.41;;;10.73;61.92
42169;BME280;27838;43.858;25.974;2023-03-16T13:54:28;100940.50;;;10.66;61.83
42169;BME280;27838;43.858;25.974;2023-03-16T13:56:59;100943.09;;;10.69;62.18